createdAt,value
2019-05-16T00:03:51.518Z,5.67
2019-05-16T00:08:58.579Z,5.17
2019-05-16T00:14:05.337Z,8.10
2019-05-16T00:19:11.928Z,5.95
2019-05-16T00:24:18.742Z,6.40
2019-05-16T00:29:27.729Z,5.47
2019-05-16T00:34:34.347Z,13.00
2019-05-16T00:39:41.179Z,6.28
2019-05-16T00:44:47.993Z,5.75
2019-05-16T00:49:54.670Z,6.87
2019-05-16T00:55:01.200Z,6.33
2019-05-16T01:00:09.808Z,5.42
2019-05-16T01:05:18.930Z,3.87
2019-05-16T01:10:24.845Z,4.45
2019-05-16T01:15:31.455Z,3.58
2019-05-16T01:20:38.644Z,5.78
2019-05-16T01:25:45.518Z,6.10
2019-05-16T01:30:52.116Z,3.85
2019-05-16T01:35:58.720Z,6.67
2019-05-16T01:41:08.612Z,10.03
2019-05-16T01:46:14.496Z,4.95
2019-05-16T01:51:21.125Z,6.70
2019-05-16T01:56:28.113Z,5.37
2019-05-16T02:01:34.669Z,5.87
2019-05-16T02:06:52.936Z,3.98
2019-05-16T02:11:49.540Z,5.17
2019-05-16T02:16:58.056Z,7.55
2019-05-16T02:22:04.520Z,5.25
2019-05-16T02:27:11.033Z,7.62
2019-05-16T02:32:17.579Z,8.65
2019-05-16T02:37:29.963Z,7.05
2019-05-16T02:42:32.582Z,4.35
2019-05-16T02:47:42.397Z,7.72
2019-05-16T02:52:51.403Z,9.73
2019-05-16T02:57:56.871Z,6.22
2019-05-16T03:03:04.941Z,6.90
2019-05-16T03:08:14.180Z,5.90
2019-05-16T03:13:22.774Z,6.12
2019-05-16T03:18:31.249Z,8.20
2019-05-16T03:23:41.904Z,7.22
2019-05-16T03:28:47.209Z,5.03
2019-05-16T03:33:59.649Z,6.17
2019-05-16T03:39:02.207Z,7.72
2019-05-16T03:44:11.252Z,5.75
2019-05-16T03:49:17.374Z,5.70
2019-05-16T03:54:23.841Z,4.30
2019-05-16T03:59:31.490Z,6.65
2019-05-16T04:04:41.484Z,7.20
2019-05-16T04:09:46.421Z,4.20
2019-05-16T04:14:52.877Z,6.92
2019-05-16T04:20:02.023Z,7.97
2019-05-16T04:25:11.344Z,4.15
2019-05-16T04:30:21.684Z,9.25
2019-05-16T04:35:26.855Z,6.58
2019-05-16T04:40:33.469Z,6.87
2019-05-16T04:45:41.416Z,3.17
2019-05-16T04:50:51.460Z,4.12
2019-05-16T04:55:56.702Z,5.67
2019-05-16T05:01:03.343Z,5.75
2019-05-16T05:06:11.368Z,5.55
2019-05-16T05:11:21.247Z,3.67
2019-05-16T05:16:26.285Z,8.78
2019-05-16T05:21:32.685Z,4.50
2019-05-16T05:26:41.483Z,3.95
2019-05-16T05:31:47.451Z,5.37
2019-05-16T05:36:53.907Z,6.30
2019-05-16T05:42:00.497Z,3.85
2019-05-16T05:47:06.946Z,6.87
2019-05-16T05:52:13.499Z,3.83
2019-05-16T05:57:20.906Z,6.45
2019-05-16T06:02:27.686Z,4.60
2019-05-16T06:07:34.304Z,5.62
2019-05-16T06:12:42.653Z,3.47
2019-05-16T06:17:50.827Z,3.80
2019-05-16T06:22:59.872Z,2.20
2019-05-16T06:28:05.863Z,3.75
2019-05-16T06:33:12.477Z,3.10
2019-05-16T06:38:21.030Z,3.92
2019-05-16T06:43:29.862Z,4.78
2019-05-16T06:48:35.621Z,3.17
2019-05-16T06:53:42.382Z,2.90
2019-05-16T06:58:51.722Z,3.20
2019-05-16T07:03:57.260Z,1.62
2019-05-16T07:09:05.905Z,2.55
2019-05-16T07:14:12.574Z,1.98
2019-05-16T07:19:20.735Z,1.57
2019-05-16T07:24:27.347Z,1.77
2019-05-16T07:29:33.732Z,1.50
2019-05-16T07:34:40.467Z,1.47
2019-05-16T07:39:47.201Z,1.50
2019-05-16T07:44:53.825Z,1.85
2019-05-16T07:50:00.445Z,1.72
2019-05-16T07:55:10.496Z,15.38
2019-05-16T08:00:16.150Z,3.67
2019-05-16T08:05:22.763Z,2.10
2019-05-16T08:10:37.965Z,2.08
2019-05-16T08:15:40.537Z,2.85
2019-05-16T08:20:46.135Z,1.87
2019-05-16T08:25:52.740Z,1.67
2019-05-16T08:31:00.817Z,2.42
2019-05-16T08:36:09.071Z,1.92
2019-05-16T08:46:24.308Z,1.10
2019-05-16T08:51:33.671Z,1.00
2019-05-16T08:56:44.395Z,1.20
2019-05-16T09:01:56.680Z,1.70
2019-05-16T09:07:02.000Z,1.72
2019-05-16T09:10:40.383Z,1.95
2019-05-16T09:12:07.928Z,2.25
2019-05-16T09:17:14.658Z,2.45
2019-05-16T09:22:21.234Z,2.80
2019-05-16T09:27:27.687Z,2.22
2019-05-16T09:32:36.633Z,2.02
2019-05-16T09:37:42.559Z,3.65
2019-05-16T09:42:49.059Z,1.32
2019-05-16T09:47:57.345Z,2.42
2019-05-16T09:53:04.398Z,1.98
2019-05-16T09:58:11.010Z,1.67
2019-05-16T10:03:22.337Z,2.40
2019-05-16T10:08:26.763Z,1.87
2019-05-16T10:13:33.604Z,1.65
2019-05-16T10:18:40.495Z,1.50
2019-05-16T10:23:47.132Z,1.40
2019-05-16T10:28:53.748Z,1.72
2019-05-16T10:34:00.364Z,1.37
2019-05-16T10:39:08.393Z,1.52
2019-05-16T10:44:17.582Z,2.22
2019-05-16T10:49:34.317Z,1.30
2019-05-16T10:54:31.687Z,1.98
2019-05-16T10:59:57.941Z,2.20
2019-05-16T11:04:59.338Z,2.33
2019-05-16T11:10:02.647Z,2.72
2019-05-16T11:15:03.322Z,2.52
2019-05-16T11:20:11.112Z,1.80
2019-05-16T11:25:27.965Z,1.55
2019-05-16T11:30:27.975Z,1.75
2019-05-16T11:35:37.835Z,1.30
2019-05-16T11:40:43.421Z,1.87
2019-05-16T11:45:50.194Z,2.77
2019-05-16T11:50:57.022Z,2.40
2019-05-16T11:56:03.716Z,2.42
2019-05-16T12:01:10.248Z,1.90
2019-05-16T12:06:17.227Z,1.40
2019-05-16T12:11:23.908Z,2.50
2019-05-16T12:16:30.449Z,2.15
2019-05-16T12:21:37.062Z,3.27
2019-05-16T12:26:43.514Z,1.87
2019-05-16T12:31:57.584Z,2.55
2019-05-16T12:37:17.429Z,3.02
2019-05-16T12:42:24.098Z,3.35
2019-05-16T12:47:30.665Z,3.55
2019-05-16T12:52:38.290Z,1.82
2019-05-16T12:57:48.887Z,1.98
2019-05-16T13:02:54.534Z,2.55
2019-05-16T13:08:01.235Z,4.70
2019-05-16T13:13:08.019Z,2.55
2019-05-16T13:18:16.747Z,2.77
2019-05-16T13:23:22.853Z,3.77
2019-05-16T13:28:29.456Z,2.87
2019-05-16T13:33:36.792Z,2.15
2019-05-16T13:38:43.415Z,4.12
2019-05-16T13:43:50.062Z,2.30
2019-05-16T13:48:58.362Z,2.30
2019-05-16T13:54:06.967Z,3.33
2019-05-16T13:59:13.346Z,2.87
2019-05-16T14:04:19.958Z,4.35
2019-05-16T14:09:26.894Z,3.80
2019-05-16T14:14:41.941Z,4.22
2019-05-16T14:19:43.974Z,3.75
2019-05-16T14:24:50.854Z,3.37
2019-05-16T14:29:58.378Z,7.12
2019-05-16T14:35:08.080Z,4.17
2019-05-16T14:40:14.019Z,5.53
2019-05-16T14:45:22.249Z,4.92
2019-05-16T14:50:29.005Z,4.15
2019-05-16T14:55:38.189Z,6.50
2019-05-16T15:00:48.467Z,3.50
2019-05-16T15:05:55.369Z,6.03
2019-05-16T15:11:01.025Z,7.60
2019-05-16T15:16:07.872Z,6.80
2019-05-16T15:21:17.700Z,6.95
2019-05-16T15:26:23.610Z,5.80
2019-05-16T15:31:30.136Z,8.57
2019-05-16T15:36:37.295Z,6.78
2019-05-16T15:41:44.054Z,12.65
2019-05-16T15:46:51.433Z,9.65
2019-05-16T15:51:58.748Z,5.80
2019-05-16T15:57:06.692Z,9.55
2019-05-16T16:02:13.640Z,8.18
2019-05-16T16:07:20.330Z,8.20
2019-05-16T16:12:26.942Z,10.23
2019-05-16T16:17:33.587Z,8.13
2019-05-16T16:22:40.109Z,8.65
2019-05-16T16:27:46.730Z,9.63
2019-05-16T16:32:53.384Z,9.18
2019-05-16T16:37:59.987Z,11.08
2019-05-16T16:43:08.030Z,8.95
2019-05-16T16:48:17.074Z,10.72
2019-05-16T16:53:23.992Z,12.45
2019-05-16T16:58:30.582Z,11.83
2019-05-16T17:03:38.373Z,13.53
2019-05-16T17:08:47.257Z,12.88
2019-05-16T17:13:53.445Z,12.07
2019-05-16T17:19:00.315Z,17.23
2019-05-16T17:24:06.991Z,17.07
2019-05-16T17:29:13.654Z,17.23
2019-05-16T17:34:20.827Z,17.52
2019-05-16T17:39:27.568Z,18.87
2019-05-16T17:44:37.491Z,17.95
2019-05-16T17:49:46.129Z,16.57
2019-05-16T17:54:53.492Z,15.85
2019-05-16T18:00:00.289Z,18.07
2019-05-16T18:05:08.980Z,15.95
2019-05-16T18:10:16.708Z,18.17
2019-05-16T18:15:24.037Z,16.67
2019-05-16T18:20:30.639Z,19.35
2019-05-16T18:26:02.022Z,19.85
2019-05-16T18:31:09.195Z,18.85
2019-05-16T18:36:16.996Z,14.23
2019-05-16T18:41:23.849Z,19.25
2019-05-16T18:46:31.359Z,14.58
2019-05-16T18:51:37.963Z,14.68
2019-05-16T18:56:44.530Z,16.57
2019-05-16T19:01:51.136Z,17.37
2019-05-16T19:06:59.679Z,17.07
2019-05-16T19:12:06.616Z,19.10
2019-05-16T19:17:22.129Z,19.65
2019-05-16T19:22:40.833Z,22.35
2019-05-16T19:27:47.813Z,23.22
2019-05-16T19:32:54.376Z,28.12
2019-05-16T19:38:01.011Z,34.33
2019-05-16T19:43:07.675Z,26.87
2019-05-16T19:48:14.306Z,18.37
2019-05-16T19:53:20.913Z,14.90
2019-05-16T19:58:27.546Z,20.52
2019-05-16T20:03:36.389Z,18.07
2019-05-16T20:08:42.540Z,19.52
2019-05-16T20:13:49.088Z,19.60
2019-05-16T20:18:56.196Z,20.82
2019-05-16T20:24:02.872Z,14.73
2019-05-16T20:29:09.411Z,23.20
2019-05-16T20:34:17.541Z,21.15
2019-05-16T20:39:26.674Z,15.78
2019-05-16T20:44:32.674Z,19.07
2019-05-16T20:49:39.288Z,17.67
2019-05-16T20:54:46.598Z,14.13
2019-05-16T20:59:53.896Z,22.15
2019-05-16T21:05:00.421Z,14.80
2019-05-16T21:10:08.324Z,17.73
2019-05-16T21:15:17.113Z,22.60
2019-05-16T21:20:23.370Z,25.70
2019-05-16T21:25:29.906Z,26.73
2019-05-16T21:30:36.893Z,28.87
2019-05-16T21:35:43.498Z,26.95
2019-05-16T21:40:50.227Z,26.70
2019-05-16T21:45:56.840Z,30.20
2019-05-16T21:51:03.493Z,28.42
2019-05-16T21:56:10.080Z,31.70
2019-05-16T22:01:21.478Z,27.45
2019-05-16T22:06:28.396Z,31.23
2019-05-16T22:11:36.965Z,30.60
2019-05-16T22:16:43.616Z,31.15
2019-05-16T22:21:50.392Z,31.45
2019-05-16T22:26:57.198Z,33.88
2019-05-16T22:32:03.791Z,31.33
2019-05-16T22:37:10.571Z,30.68
2019-05-16T22:42:17.642Z,33.15
2019-05-16T22:47:26.501Z,34.10
2019-05-16T22:52:32.583Z,34.53
2019-05-16T22:57:39.110Z,30.70
2019-05-16T23:02:45.730Z,29.25
2019-05-16T23:08:02.956Z,34.30
2019-05-16T23:13:00.624Z,33.60
2019-05-16T23:18:07.228Z,38.98
2019-05-16T23:23:13.867Z,34.88
2019-05-16T23:28:20.476Z,37.00
2019-05-16T23:33:27.045Z,35.10
2019-05-16T23:38:33.699Z,34.78
2019-05-16T23:43:40.275Z,37.63
2019-05-16T23:48:47.323Z,34.67
2019-05-16T23:53:53.821Z,38.33
2019-05-16T23:59:00.425Z,36.20
